Telluride, CO (81435)

12:26 AM MDT on August 26, 2016 (GMT -0600)
Mountain Village - Rocky Road | | Change Station

Elev 9950 ft 37.92 °N, 107.86 °W | Updated 1 minute ago

Rain
Rain
37.2 °F
Feels Like 37 °F
N
1.0
Wind Variable Wind from SSE

Today
High -- | Low -- °F
--% Chance of Precip.
Yesterday
High -- | Low -- °F
Precip. -- in
Pressure 30.51 in
Visibility 3.0 miles
Clouds Mostly Cloudy 2000 ft
Overcast 2700 ft
Windchill 37 °F
Dew Point 35 °F
Humidity 92%
Rainfall 0.00 in
Snow Depth Not available.
6:36 AM 7:48 PM
Last Quarter, 38% visible
METAR KTEX 260435Z AUTO 09004KT 3SM RA BKN020 OVC027 04/03 A3051 RMK AO2 LTG DSNT N P0006 T00430034
Pressure 30.51 in
Visibility 3.0 miles
Clouds Mostly Cloudy 2000 ft
Overcast 2700 ft
Windchill 37 °F
Dew Point 35 °F
Humidity 92%
Rainfall 0.00 in
Snow Depth Not available.
6:36 AM 7:48 PM
Last Quarter, 38% visible
METAR KTEX 260435Z AUTO 09004KT 3SM RA BKN020 OVC027 04/03 A3051 RMK AO2 LTG DSNT N P0006 T00430034

10-Day Weather Forecast

Almanac

Astronomy

Aug. 26, 2016 Rise Set
Actual Time
Civil Twilight
Nautical Twilight
Astronomical Twilight
Moon
Length of Visible Light
Length of Day
Tomorrow will be .
, % of the Moon is Illuminated

Today's Extremes

State Highs State Lows

Community

WunderPhotos

Upload Photos

1,935,058 photos uploaded!

WunderBlog® & News

Nearby

Air Quality

  Air Quality AQ Index Pollutant
Not available.

Snow Depth

Station Depth Elevation

Earthquake Activity

City Distance Mag. Time & Date
Minimum magnitude displayed is 2.5.

Coastal Water Temperatures

Place Temperature

Stations

Nearby Weather Stations

Station Location Temp. Windchill Dew Point Humidity Wind Precip. Elev Updated Type
                   

Watches & Warnings

There are currently no watches in effect.